createdAt,value
2022-12-12T00:01:26.701Z,73.13
2022-12-12T00:03:54.102Z,72.13
2022-12-12T00:06:22.211Z,69.95
2022-12-12T00:08:49.301Z,63.25
2022-12-12T00:11:15.898Z,64.97
2022-12-12T00:13:42.855Z,64.15
2022-12-12T00:16:09.706Z,64.30
2022-12-12T00:18:39.147Z,68.38
2022-12-12T00:21:11.358Z,66.43
2022-12-12T00:23:40.531Z,68.72
2022-12-12T00:26:11.911Z,69.82
2022-12-12T00:28:38.446Z,69.32
2022-12-12T00:31:05.194Z,63.70
2022-12-12T00:33:31.946Z,67.88
2022-12-12T00:35:58.563Z,69.65
2022-12-12T00:38:25.354Z,68.28
2022-12-12T00:40:56.594Z,67.38
2022-12-12T00:43:23.630Z,68.15
2022-12-12T00:45:50.290Z,72.50
2022-12-12T00:48:17.147Z,64.47
2022-12-12T00:50:43.985Z,69.18
2022-12-12T00:53:11.141Z,73.72
2022-12-12T00:55:37.614Z,71.72
2022-12-12T00:58:04.157Z,63.40
2022-12-12T01:00:31.450Z,67.38
2022-12-12T01:02:58.561Z,68.20
2022-12-12T01:05:26.405Z,64.38
2022-12-12T01:07:53.082Z,67.35
2022-12-12T01:10:19.873Z,63.78
2022-12-12T01:12:46.487Z,68.22
2022-12-12T01:15:13.199Z,62.40
2022-12-12T01:17:41.553Z,64.47
2022-12-12T01:20:20.812Z,61.45
2022-12-12T01:22:48.421Z,66.35
2022-12-12T01:25:16.574Z,68.07
2022-12-12T01:27:43.671Z,64.43
2022-12-12T01:30:14.440Z,64.65
2022-12-12T01:32:41.079Z,71.03
2022-12-12T01:35:08.414Z,70.72
2022-12-12T01:37:35.892Z,72.97
2022-12-12T01:40:04.125Z,65.22
2022-12-12T01:42:30.653Z,68.57
2022-12-12T01:44:57.342Z,70.22
2022-12-12T01:47:25.430Z,65.90
2022-12-12T01:50:04.507Z,65.38
2022-12-12T01:52:39.199Z,68.43
2022-12-12T01:55:07.664Z,68.32
2022-12-12T01:57:37.902Z,68.78
2022-12-12T02:00:08.519Z,70.72
2022-12-12T02:05:09.183Z,63.72
2022-12-12T02:07:35.789Z,71.35
2022-12-12T02:10:02.540Z,76.32
2022-12-12T02:12:29.030Z,66.38
2022-12-12T02:14:55.685Z,69.03
2022-12-12T02:17:24.866Z,67.25
2022-12-12T02:20:10.051Z,68.03
2022-12-12T02:23:06.983Z,66.43
2022-12-12T02:26:17.874Z,69.00
2022-12-12T02:31:44.566Z,66.57
2022-12-12T02:34:33.625Z,68.50
2022-12-12T02:37:07.702Z,70.65
2022-12-12T02:39:45.644Z,76.55
2022-12-12T02:42:31.010Z,76.43
2022-12-12T02:45:12.407Z,75.85
2022-12-12T02:47:48.343Z,72.07
2022-12-12T02:50:21.355Z,76.28
2022-12-12T02:52:48.698Z,73.97
2022-12-12T02:55:15.983Z,74.32
2022-12-12T02:57:42.982Z,80.20
2022-12-12T03:00:20.081Z,77.97
2022-12-12T03:03:26.449Z,80.60
2022-12-12T03:06:39.314Z,74.82
2022-12-12T03:09:23.882Z,67.78
2022-12-12T03:12:07.143Z,74.25
2022-12-12T03:15:15.952Z,74.47
2022-12-12T03:18:02.802Z,71.45
2022-12-12T03:20:38.436Z,75.50
2022-12-12T03:23:09.411Z,80.03
2022-12-12T03:25:54.352Z,70.78
2022-12-12T03:28:25.791Z,70.53
2022-12-12T03:30:56.004Z,74.78
2022-12-12T03:33:33.602Z,71.43
2022-12-12T03:36:10.561Z,71.38
2022-12-12T03:38:42.855Z,75.63
2022-12-12T03:41:15.718Z,79.57
2022-12-12T03:43:52.232Z,77.75
2022-12-12T03:46:39.914Z,75.45
2022-12-12T03:49:18.147Z,66.95
2022-12-12T03:51:51.971Z,68.30
2022-12-12T03:54:23.783Z,69.95
2022-12-12T03:56:56.624Z,70.95
2022-12-12T03:59:36.107Z,73.20
2022-12-12T04:02:24.029Z,72.70
2022-12-12T04:05:18.203Z,73.53
2022-12-12T04:07:50.121Z,77.22
2022-12-12T04:10:35.044Z,74.53
2022-12-12T04:13:39.759Z,73.63
2022-12-12T04:16:12.799Z,71.68
2022-12-12T04:18:52.584Z,72.20
2022-12-12T04:22:04.156Z,71.22
2022-12-12T04:24:44.264Z,75.22
2022-12-12T04:27:25.753Z,67.88
2022-12-12T04:30:05.890Z,70.32
2022-12-12T04:32:50.696Z,76.75
2022-12-12T04:35:23.095Z,68.70
2022-12-12T04:37:54.118Z,70.38
2022-12-12T04:40:33.812Z,68.72
2022-12-12T04:43:08.992Z,68.85
2022-12-12T04:45:40.877Z,75.57
2022-12-12T04:48:12.646Z,71.85
2022-12-12T04:50:39.714Z,75.13
2022-12-12T04:53:18.379Z,74.88
2022-12-12T04:55:49.188Z,72.63
2022-12-12T04:58:15.876Z,75.72
2022-12-12T05:00:52.456Z,72.15
2022-12-12T05:03:35.134Z,72.45
2022-12-12T05:06:07.827Z,64.78
2022-12-12T05:08:44.053Z,70.38
2022-12-12T05:11:12.044Z,80.18
2022-12-12T05:13:42.514Z,75.57
2022-12-12T05:16:18.882Z,75.05
2022-12-12T05:18:45.552Z,72.57
2022-12-12T05:21:13.126Z,72.38
2022-12-12T05:23:40.007Z,70.88
2022-12-12T05:26:08.548Z,74.35
2022-12-12T05:28:37.348Z,69.07
2022-12-12T05:31:03.957Z,68.03
2022-12-12T05:33:30.886Z,72.28
2022-12-12T05:35:57.360Z,71.97
2022-12-12T05:38:23.850Z,71.15
2022-12-12T05:40:50.728Z,73.68
2022-12-12T05:43:17.198Z,74.25
2022-12-12T05:45:43.744Z,72.40
2022-12-12T05:48:10.305Z,80.50
2022-12-12T05:50:36.872Z,73.25
2022-12-12T05:53:03.519Z,76.32
2022-12-12T05:55:30.082Z,79.15
2022-12-12T05:57:56.571Z,78.47
2022-12-12T06:00:23.409Z,75.00
2022-12-12T06:02:49.923Z,72.18
2022-12-12T06:05:16.643Z,79.45
2022-12-12T06:07:43.142Z,74.60
2022-12-12T06:10:09.978Z,78.28
2022-12-12T06:12:36.639Z,74.70
2022-12-12T06:15:03.412Z,76.22
2022-12-12T06:17:33.310Z,80.13
2022-12-12T06:20:00.554Z,78.07
2022-12-12T06:22:27.497Z,81.25
2022-12-12T06:24:54.106Z,82.45
2022-12-12T06:27:20.596Z,78.82
2022-12-12T06:29:47.119Z,76.40
2022-12-12T06:32:13.770Z,78.32
2022-12-12T06:34:40.419Z,80.45
2022-12-12T06:37:09.820Z,79.72
2022-12-12T06:39:40.811Z,76.57
2022-12-12T06:42:07.453Z,80.50
2022-12-12T06:44:33.957Z,82.65
2022-12-12T06:47:00.625Z,79.78
2022-12-12T06:49:28.606Z,83.70
2022-12-12T06:51:55.111Z,83.70
2022-12-12T06:54:21.876Z,85.03
2022-12-12T06:56:48.889Z,75.43
2022-12-12T06:59:16.644Z,85.20
2022-12-12T07:01:43.467Z,86.55
2022-12-12T07:04:11.988Z,86.50
2022-12-12T07:06:38.505Z,86.07
2022-12-12T07:09:05.600Z,82.93
2022-12-12T07:11:32.560Z,82.90
2022-12-12T07:14:00.106Z,82.53
2022-12-12T07:16:26.850Z,82.45
2022-12-12T07:18:53.446Z,78.95
2022-12-12T07:21:21.054Z,77.63
2022-12-12T07:23:48.263Z,77.60
2022-12-12T07:26:23.048Z,75.65
2022-12-12T07:28:50.499Z,79.32
2022-12-12T07:31:19.721Z,89.82
2022-12-12T07:33:46.468Z,84.53
2022-12-12T07:36:14.417Z,79.05
2022-12-12T07:38:41.230Z,82.93
2022-12-12T07:41:10.554Z,85.57
2022-12-12T07:43:41.531Z,80.03
2022-12-12T07:46:13.234Z,79.20
2022-12-12T07:48:39.857Z,80.22
2022-12-12T07:51:06.499Z,81.78
2022-12-12T07:53:33.346Z,79.78
2022-12-12T07:55:59.941Z,82.40
2022-12-12T07:58:27.060Z,80.88
2022-12-12T08:00:55.792Z,77.72
2022-12-12T08:03:22.484Z,83.50
2022-12-12T08:05:49.221Z,75.10
2022-12-12T08:08:15.716Z,74.53
2022-12-12T08:10:42.446Z,76.90
2022-12-12T08:13:08.898Z,73.13
2022-12-12T08:15:35.408Z,72.95
2022-12-12T08:18:02.017Z,79.90
2022-12-12T08:20:28.531Z,79.40
2022-12-12T08:22:55.041Z,75.60
2022-12-12T08:25:22.011Z,75.25
2022-12-12T08:27:48.525Z,74.47
2022-12-12T08:30:15.101Z,77.13
2022-12-12T08:32:41.595Z,76.68
2022-12-12T08:35:08.730Z,68.22
2022-12-12T08:37:35.218Z,67.35
2022-12-12T08:40:01.942Z,71.05
2022-12-12T08:42:28.500Z,82.32
2022-12-12T08:44:55.106Z,86.22
2022-12-12T08:47:21.739Z,88.15
2022-12-12T08:49:48.295Z,82.70
2022-12-12T08:52:14.801Z,87.75
2022-12-12T08:54:41.306Z,90.03
2022-12-12T08:57:07.940Z,93.45
2022-12-12T08:59:34.432Z,88.20
2022-12-12T09:02:01.606Z,84.38
2022-12-12T09:04:28.274Z,79.72
2022-12-12T09:06:55.159Z,82.32
2022-12-12T09:09:21.730Z,86.82
2022-12-12T09:11:48.230Z,79.88
2022-12-12T09:14:14.686Z,79.72
2022-12-12T09:16:41.355Z,85.80
2022-12-12T09:19:07.938Z,91.22
2022-12-12T09:21:34.871Z,93.32
2022-12-12T09:24:02.151Z,82.78
2022-12-12T09:26:28.752Z,88.93
2022-12-12T09:28:55.343Z,87.60
2022-12-12T09:31:21.967Z,91.38
2022-12-12T09:33:48.923Z,81.30
2022-12-12T09:36:15.700Z,84.50
2022-12-12T09:38:42.790Z,90.25
2022-12-12T09:41:09.165Z,86.78
2022-12-12T09:44:07.813Z,83.93
2022-12-12T09:46:42.275Z,77.50
2022-12-12T09:49:22.594Z,78.20
2022-12-12T09:51:51.417Z,86.97
2022-12-12T09:54:21.271Z,81.50
2022-12-12T09:57:10.323Z,74.37
2022-12-12T10:00:02.116Z,75.90
2022-12-12T10:02:53.603Z,81.60
2022-12-12T10:05:46.438Z,90.45
2022-12-12T10:08:31.908Z,84.63
2022-12-12T10:11:07.019Z,90.22
2022-12-12T10:13:35.830Z,84.25
2022-12-12T10:16:09.559Z,88.65
2022-12-12T10:18:41.983Z,84.97
2022-12-12T10:21:17.592Z,87.35
2022-12-12T10:23:47.582Z,82.75
2022-12-12T10:26:21.984Z,81.95
2022-12-12T10:28:55.952Z,84.80
2022-12-12T10:31:43.841Z,84.10
2022-12-12T10:34:47.750Z,86.00
2022-12-12T10:37:34.894Z,84.50
2022-12-12T10:40:14.833Z,78.75
2022-12-12T10:42:53.208Z,82.30
2022-12-12T10:45:48.263Z,89.63
2022-12-12T10:48:14.865Z,80.95
2022-12-12T10:51:12.597Z,77.40
2022-12-12T10:53:42.074Z,79.45
2022-12-12T10:56:24.795Z,80.35
2022-12-12T10:58:57.373Z,75.97
2022-12-12T11:02:08.526Z,74.15
2022-12-12T11:04:25.013Z,71.55
2022-12-12T11:06:53.699Z,71.65
2022-12-12T11:09:28.320Z,77.63
2022-12-12T11:12:00.720Z,80.90
2022-12-12T11:14:34.964Z,78.35
2022-12-12T11:17:01.666Z,76.47
2022-12-12T11:19:37.628Z,77.22
2022-12-12T11:22:04.934Z,71.65
2022-12-12T11:24:33.365Z,74.53
2022-12-12T11:27:05.352Z,72.40
2022-12-12T11:29:40.927Z,74.07
2022-12-12T11:32:17.605Z,72.78
2022-12-12T11:34:49.516Z,72.05
2022-12-12T11:37:26.780Z,76.35
2022-12-12T11:39:56.412Z,73.20
2022-12-12T11:42:31.243Z,76.18
2022-12-12T11:45:08.525Z,74.78
2022-12-12T11:47:41.465Z,76.43
2022-12-12T11:50:20.895Z,77.35
2022-12-12T11:52:48.750Z,78.07
2022-12-12T11:55:31.644Z,75.00
2022-12-12T11:58:11.727Z,79.40
2022-12-12T12:00:57.505Z,71.63
2022-12-12T12:03:57.561Z,72.60
2022-12-12T12:06:36.367Z,75.90
2022-12-12T12:09:15.503Z,76.00
2022-12-12T12:11:41.925Z,73.35
2022-12-12T12:14:37.848Z,69.65
2022-12-12T12:17:23.243Z,65.57
2022-12-12T12:20:11.517Z,58.80
2022-12-12T12:22:54.588Z,65.35
2022-12-12T12:25:34.769Z,57.70
2022-12-12T12:28:14.320Z,61.03
2022-12-12T12:30:55.544Z,64.07
2022-12-12T12:33:25.033Z,60.47
2022-12-12T12:36:08.318Z,57.95
2022-12-12T12:38:49.980Z,55.53
2022-12-12T12:41:55.364Z,57.50
2022-12-12T12:44:25.865Z,58.92
2022-12-12T12:47:14.621Z,55.83
2022-12-12T12:49:45.280Z,52.67
2022-12-12T12:54:47.290Z,56.08
2022-12-12T12:59:55.349Z,51.08
2022-12-12T13:02:33.545Z,48.70
2022-12-12T13:05:10.198Z,55.88
2022-12-12T13:07:46.228Z,52.75
2022-12-12T13:10:19.763Z,56.38
2022-12-12T13:13:07.387Z,55.55
2022-12-12T13:15:40.338Z,48.90
2022-12-12T13:18:15.088Z,52.97
2022-12-12T13:20:45.755Z,48.22
2022-12-12T13:26:23.014Z,46.13
2022-12-12T13:29:18.177Z,49.60
2022-12-12T13:32:03.435Z,41.42
2022-12-12T13:34:32.471Z,46.22
2022-12-12T13:36:59.953Z,47.55
2022-12-12T13:39:38.202Z,46.58
2022-12-12T13:42:07.265Z,45.55
2022-12-12T13:44:38.177Z,44.13
2022-12-12T13:47:30.950Z,50.33
2022-12-12T13:50:10.094Z,46.22
2022-12-12T13:52:42.943Z,48.72
2022-12-12T13:55:12.738Z,45.78
2022-12-12T13:57:57.724Z,49.42
2022-12-12T14:00:26.202Z,47.05
2022-12-12T14:03:02.103Z,46.42
2022-12-12T14:05:34.090Z,49.00
2022-12-12T14:08:05.904Z,52.90
2022-12-12T14:10:36.365Z,48.63
2022-12-12T14:13:26.244Z,53.47
2022-12-12T14:15:55.733Z,49.07
2022-12-12T14:18:30.055Z,54.42
2022-12-12T14:21:06.753Z,51.30
2022-12-12T14:23:42.080Z,50.05
2022-12-12T14:26:28.912Z,47.30
2022-12-12T14:29:17.675Z,49.22
2022-12-12T14:31:56.310Z,55.55
2022-12-12T14:34:42.485Z,54.47
2022-12-12T14:37:26.843Z,44.38
2022-12-12T14:40:02.483Z,45.72
2022-12-12T14:43:15.247Z,45.75
2022-12-12T14:45:51.582Z,50.60
2022-12-12T14:48:21.202Z,46.58
2022-12-12T14:51:11.899Z,46.13
2022-12-12T14:53:38.413Z,40.38
2022-12-12T14:56:29.604Z,41.55
2022-12-12T14:59:04.977Z,40.58
2022-12-12T15:01:39.816Z,44.33
2022-12-12T15:04:09.986Z,46.42
2022-12-12T15:06:50.962Z,52.35
2022-12-12T15:09:19.630Z,51.83
2022-12-12T15:11:48.235Z,50.08
2022-12-12T15:14:18.718Z,49.97
2022-12-12T15:16:48.667Z,52.65
2022-12-12T15:19:25.903Z,52.00
2022-12-12T15:21:52.723Z,48.70
2022-12-12T15:24:36.700Z,51.47
2022-12-12T15:27:05.082Z,52.53
2022-12-12T15:29:32.762Z,54.72
2022-12-12T15:32:14.594Z,49.67
2022-12-12T15:34:42.871Z,50.80
2022-12-12T15:37:27.271Z,55.53
2022-12-12T15:40:18.080Z,55.63
2022-12-12T15:45:24.323Z,50.38
2022-12-12T15:47:52.439Z,58.45
2022-12-12T15:50:22.903Z,59.70
2022-12-12T15:53:21.909Z,54.40
2022-12-12T15:56:13.703Z,53.40
2022-12-12T15:58:42.012Z,57.15
2022-12-12T16:01:20.692Z,59.30
2022-12-12T16:04:09.763Z,53.35
2022-12-12T16:06:42.051Z,55.75
2022-12-12T16:09:11.339Z,58.75
2022-12-12T16:11:40.200Z,56.10
2022-12-12T16:14:24.987Z,60.05
2022-12-12T16:16:59.865Z,57.05
2022-12-12T16:19:54.144Z,52.60
2022-12-12T16:22:26.617Z,56.67
2022-12-12T16:24:56.634Z,55.63
2022-12-12T16:27:23.091Z,50.15
2022-12-12T16:29:49.592Z,51.25
2022-12-12T16:32:19.115Z,54.03
2022-12-12T16:34:45.742Z,49.47
2022-12-12T16:37:18.209Z,53.30
2022-12-12T16:39:45.314Z,54.00
2022-12-12T16:42:18.143Z,56.83
2022-12-12T16:44:45.315Z,54.63
2022-12-12T16:47:32.093Z,56.95
2022-12-12T16:49:58.626Z,55.95
2022-12-12T16:52:25.072Z,55.33
2022-12-12T16:54:53.927Z,60.30
2022-12-12T16:57:23.080Z,56.05
2022-12-12T16:59:49.544Z,54.45
2022-12-12T17:02:17.992Z,50.60
2022-12-12T17:04:44.733Z,57.03
2022-12-12T17:07:11.386Z,55.97
2022-12-12T17:09:37.836Z,58.30
2022-12-12T17:12:04.611Z,58.25
2022-12-12T17:14:31.127Z,55.17
2022-12-12T17:16:57.766Z,58.65
2022-12-12T17:19:26.459Z,55.63
2022-12-12T17:21:53.533Z,56.95
2022-12-12T17:24:20.622Z,59.03
2022-12-12T17:26:47.199Z,62.60
2022-12-12T17:29:13.706Z,64.72
2022-12-12T17:31:40.542Z,60.90
2022-12-12T17:34:07.212Z,60.10
2022-12-12T17:36:33.955Z,59.10
2022-12-12T17:39:00.508Z,59.85
2022-12-12T17:41:27.104Z,63.05
2022-12-12T17:43:57.421Z,65.55
2022-12-12T17:46:25.193Z,63.13
2022-12-12T17:48:53.054Z,66.28
2022-12-12T17:51:23.947Z,62.67
2022-12-12T17:53:52.366Z,64.05
2022-12-12T17:56:22.384Z,69.30
2022-12-12T17:58:49.610Z,63.95
2022-12-12T18:01:19.253Z,62.10
2022-12-12T18:03:46.378Z,58.30
2022-12-12T18:06:14.440Z,63.67
2022-12-12T18:08:41.594Z,60.03
2022-12-12T18:11:10.394Z,60.42
2022-12-12T18:13:38.724Z,59.92
2022-12-12T18:16:07.114Z,60.03
2022-12-12T18:18:34.262Z,63.13
2022-12-12T18:21:10.558Z,57.30
2022-12-12T18:23:39.593Z,59.88
2022-12-12T18:26:21.629Z,61.22
2022-12-12T18:28:59.413Z,62.30
2022-12-12T18:31:26.385Z,71.80
2022-12-12T18:33:53.631Z,65.65
2022-12-12T18:36:22.895Z,63.65
2022-12-12T18:38:49.853Z,67.82
2022-12-12T18:41:17.407Z,79.50
2022-12-12T18:43:44.355Z,66.25
2022-12-12T18:46:17.569Z,65.57
2022-12-12T18:48:47.161Z,61.47
2022-12-12T18:51:20.342Z,61.33
2022-12-12T18:53:47.131Z,63.65
2022-12-12T18:56:16.411Z,64.38
2022-12-12T18:58:43.739Z,60.35
2022-12-12T19:01:16.900Z,64.93
2022-12-12T19:03:45.373Z,65.38
2022-12-12T19:06:18.035Z,65.22
2022-12-12T19:08:44.770Z,65.68
2022-12-12T19:11:11.875Z,68.30
2022-12-12T19:13:39.200Z,61.40
2022-12-12T19:16:10.557Z,63.97
2022-12-12T19:18:37.763Z,66.18
2022-12-12T19:21:10.347Z,70.45
2022-12-12T19:23:37.270Z,64.90
2022-12-12T19:26:10.289Z,72.50
2022-12-12T19:28:37.557Z,67.50
2022-12-12T19:31:10.019Z,68.93
2022-12-12T19:33:36.965Z,77.47
2022-12-12T19:36:24.813Z,75.82
2022-12-12T19:38:52.188Z,67.72
2022-12-12T19:41:21.036Z,62.95
2022-12-12T19:43:50.610Z,68.60
2022-12-12T19:46:20.315Z,64.93
2022-12-12T19:48:47.877Z,50.40
2022-12-12T19:51:18.189Z,67.25
2022-12-12T19:53:47.097Z,63.45
2022-12-12T19:56:22.945Z,62.17
2022-12-12T19:58:50.436Z,64.40
2022-12-12T20:01:22.210Z,65.53
2022-12-12T20:03:50.987Z,64.78
2022-12-12T20:06:18.531Z,60.95
2022-12-12T20:08:45.301Z,66.18
2022-12-12T20:11:14.257Z,61.97
2022-12-12T20:13:40.857Z,61.83
2022-12-12T20:16:13.333Z,60.85
2022-12-12T20:18:41.541Z,66.38
2022-12-12T20:21:10.186Z,66.80
2022-12-12T20:23:45.356Z,60.10
2022-12-12T20:26:18.878Z,65.65
2022-12-12T20:28:47.046Z,59.75
2022-12-12T20:31:17.943Z,60.78
2022-12-12T20:33:45.439Z,67.88
2022-12-12T20:36:21.228Z,67.18
2022-12-12T20:38:48.717Z,59.95
2022-12-12T20:41:21.811Z,62.03
2022-12-12T20:43:48.944Z,60.63
2022-12-12T20:46:24.533Z,61.83
2022-12-12T20:48:51.581Z,61.30
2022-12-12T20:51:52.816Z,60.83
2022-12-12T20:54:07.212Z,64.95
2022-12-12T20:56:34.861Z,66.60
2022-12-12T20:59:03.298Z,63.25
2022-12-12T21:01:33.798Z,62.15
2022-12-12T21:04:02.313Z,60.95
2022-12-12T21:06:32.040Z,67.05
2022-12-12T21:09:04.660Z,47.53
2022-12-12T21:11:32.321Z,70.03
2022-12-12T21:13:59.217Z,63.17
2022-12-12T21:16:29.855Z,61.10
2022-12-12T21:18:58.752Z,64.22
2022-12-12T21:21:25.859Z,62.15
2022-12-12T21:23:53.845Z,64.28
2022-12-12T21:26:28.757Z,64.22
2022-12-12T21:28:56.264Z,63.85
2022-12-12T21:31:26.441Z,69.82
2022-12-12T21:33:53.618Z,66.70
2022-12-12T21:36:22.505Z,65.93
2022-12-12T21:38:52.578Z,60.53
2022-12-12T21:41:20.971Z,60.25
2022-12-12T21:43:48.368Z,59.17
2022-12-12T21:46:20.645Z,61.95
2022-12-12T21:49:08.074Z,59.30
2022-12-12T21:51:35.132Z,58.53
2022-12-12T21:54:03.591Z,61.60
2022-12-12T21:56:30.286Z,63.50
2022-12-12T21:58:57.472Z,59.72
2022-12-12T22:01:25.260Z,64.53
2022-12-12T22:03:51.868Z,60.08
2022-12-12T22:06:21.371Z,64.00
2022-12-12T22:08:48.497Z,66.15
2022-12-12T22:11:40.090Z,65.00
2022-12-12T22:14:04.526Z,61.47
2022-12-12T22:16:33.853Z,64.43
2022-12-12T22:19:05.730Z,61.22
2022-12-12T22:21:33.034Z,66.90
2022-12-12T22:23:59.997Z,61.08
2022-12-12T22:26:30.465Z,62.60
2022-12-12T22:28:59.719Z,62.83
2022-12-12T22:31:29.182Z,66.15
2022-12-12T22:34:03.605Z,65.60
2022-12-12T22:36:32.835Z,63.33
2022-12-12T22:39:00.750Z,62.88
2022-12-12T22:41:29.221Z,64.43
2022-12-12T22:43:57.966Z,62.13
2022-12-12T22:46:25.264Z,65.90
2022-12-12T22:48:53.953Z,58.08
2022-12-12T22:51:23.671Z,63.67
2022-12-12T22:53:50.361Z,66.10
2022-12-12T22:56:17.305Z,61.20
2022-12-12T22:58:44.152Z,63.42
2022-12-12T23:01:15.003Z,63.78
2022-12-12T23:03:42.245Z,62.33
2022-12-12T23:06:19.021Z,61.58
2022-12-12T23:08:53.847Z,60.85
2022-12-12T23:11:22.347Z,59.28
2022-12-12T23:13:49.050Z,61.67
2022-12-12T23:16:18.435Z,65.15
2022-12-12T23:18:46.856Z,65.43
2022-12-12T23:21:17.273Z,65.97
2022-12-12T23:26:13.795Z,63.85
2022-12-12T23:28:41.115Z,60.58
2022-12-12T23:31:10.330Z,60.88
2022-12-12T23:33:37.843Z,66.57
2022-12-12T23:36:07.825Z,62.03
2022-12-12T23:38:34.501Z,69.35
2022-12-12T23:41:06.259Z,58.97
2022-12-12T23:43:33.080Z,65.53
2022-12-12T23:46:04.393Z,62.35
2022-12-12T23:48:32.079Z,65.82
2022-12-12T23:50:59.106Z,62.85
2022-12-12T23:53:26.312Z,59.95
2022-12-12T23:55:52.933Z,64.57
2022-12-12T23:58:19.579Z,58.60
